createdAt,value
2023-08-17T00:00:26.780Z,3.10
2023-08-17T00:02:55.384Z,2.83
2023-08-17T00:05:23.900Z,3.27
2023-08-17T00:07:52.423Z,3.33
2023-08-17T00:10:21.175Z,3.27
2023-08-17T00:12:49.754Z,3.47
2023-08-17T00:15:18.296Z,3.37
2023-08-17T00:17:48.120Z,3.40
2023-08-17T00:20:16.913Z,3.40
2023-08-17T00:22:46.067Z,3.57
2023-08-17T00:25:14.839Z,3.07
2023-08-17T00:27:43.414Z,3.20
2023-08-17T00:30:12.907Z,3.30
2023-08-17T00:32:41.505Z,3.30
2023-08-17T00:35:11.691Z,3.50
2023-08-17T00:37:41.986Z,3.67
2023-08-17T00:40:11.527Z,3.63
2023-08-17T00:42:40.080Z,3.77
2023-08-17T00:45:09.515Z,3.27
2023-08-17T00:47:38.148Z,3.83
2023-08-17T00:50:08.034Z,3.27
2023-08-17T00:52:38.025Z,4.23
2023-08-17T00:55:07.986Z,3.97
2023-08-17T00:57:37.369Z,4.20
2023-08-17T01:00:10.058Z,4.90
2023-08-17T01:02:38.567Z,4.77
2023-08-17T01:05:07.519Z,4.00
2023-08-17T01:07:38.565Z,4.40
2023-08-17T01:10:10.472Z,4.37
2023-08-17T01:12:44.241Z,4.37
2023-08-17T01:15:17.325Z,4.83
2023-08-17T01:17:49.898Z,4.93
2023-08-17T01:20:20.535Z,4.40
2023-08-17T01:22:54.905Z,4.70
2023-08-17T01:25:25.262Z,4.50
2023-08-17T01:27:53.789Z,4.47
2023-08-17T01:30:25.865Z,4.23
2023-08-17T01:33:02.312Z,4.30
2023-08-17T01:35:39.620Z,3.93
2023-08-17T01:38:14.664Z,4.53
2023-08-17T01:40:44.935Z,4.00
2023-08-17T01:43:15.348Z,4.03
2023-08-17T01:45:46.451Z,4.30
2023-08-17T01:48:14.930Z,4.03
2023-08-17T01:50:43.295Z,4.00
2023-08-17T01:53:12.856Z,3.97
2023-08-17T01:55:41.269Z,3.93
2023-08-17T01:58:11.088Z,4.00
2023-08-17T02:00:39.913Z,4.50
2023-08-17T02:03:08.364Z,3.97
2023-08-17T02:05:36.846Z,3.30
2023-08-17T02:08:05.748Z,4.27
2023-08-17T02:10:34.236Z,3.20
2023-08-17T02:13:16.285Z,3.70
2023-08-17T02:15:49.067Z,3.80
2023-08-17T02:18:17.549Z,3.83
2023-08-17T02:20:46.032Z,3.93
2023-08-17T02:23:14.492Z,3.50
2023-08-17T02:25:43.106Z,4.63
2023-08-17T02:28:11.601Z,3.70
2023-08-17T02:30:40.183Z,4.67
2023-08-17T02:33:10.104Z,3.80
2023-08-17T02:35:38.604Z,3.83
2023-08-17T02:38:07.454Z,4.47
2023-08-17T02:40:36.025Z,3.57
2023-08-17T02:43:04.926Z,3.70
2023-08-17T02:45:33.390Z,3.53
2023-08-17T02:48:02.011Z,3.50
2023-08-17T02:50:32.355Z,4.23
2023-08-17T02:53:01.068Z,3.80
2023-08-17T02:55:29.453Z,4.17
2023-08-17T02:57:57.922Z,3.40
2023-08-17T03:00:27.388Z,4.00
2023-08-17T03:02:55.958Z,3.90
2023-08-17T03:05:24.542Z,3.90
2023-08-17T03:07:54.522Z,4.37
2023-08-17T03:10:22.951Z,3.90
2023-08-17T03:12:52.653Z,4.13
2023-08-17T03:15:21.987Z,3.80
2023-08-17T03:17:50.696Z,3.73
2023-08-17T03:20:19.232Z,4.33
2023-08-17T03:22:47.945Z,3.73
2023-08-17T03:25:20.024Z,4.27
2023-08-17T03:27:48.649Z,4.57
2023-08-17T03:30:17.225Z,4.23
2023-08-17T03:32:45.712Z,3.97
2023-08-17T03:35:14.606Z,3.87
2023-08-17T03:37:43.614Z,3.93
2023-08-17T03:40:13.428Z,4.23
2023-08-17T03:42:44.374Z,4.10
2023-08-17T03:45:12.889Z,4.70
2023-08-17T03:47:41.349Z,5.30
2023-08-17T03:50:11.346Z,4.70
2023-08-17T03:52:39.835Z,5.00
2023-08-17T03:55:09.073Z,4.73
2023-08-17T03:57:39.945Z,4.80
2023-08-17T04:00:12.393Z,4.80
2023-08-17T04:02:43.826Z,5.07
2023-08-17T04:05:16.908Z,5.03
2023-08-17T04:07:45.594Z,5.20
2023-08-17T04:10:13.958Z,5.13
2023-08-17T04:12:42.622Z,5.43
2023-08-17T04:15:12.717Z,5.03
2023-08-17T04:17:41.155Z,5.50
2023-08-17T04:20:10.533Z,5.37
2023-08-17T04:22:39.046Z,5.83
2023-08-17T04:25:08.493Z,5.77
2023-08-17T04:27:37.047Z,5.80
2023-08-17T04:30:06.906Z,6.03
2023-08-17T04:32:45.438Z,6.20
2023-08-17T04:35:14.146Z,5.70
2023-08-17T04:37:42.599Z,5.53
2023-08-17T04:40:12.357Z,5.47
2023-08-17T04:42:40.979Z,6.33
2023-08-17T04:45:10.749Z,6.33
2023-08-17T04:47:42.650Z,6.00
2023-08-17T04:50:17.250Z,6.73
2023-08-17T04:52:46.159Z,6.10
2023-08-17T04:55:15.430Z,6.50
2023-08-17T04:57:44.907Z,5.57
2023-08-17T05:00:16.614Z,6.10
2023-08-17T05:02:45.461Z,6.37
2023-08-17T05:05:15.575Z,5.37
2023-08-17T05:07:44.105Z,5.57
2023-08-17T05:10:12.817Z,6.23
2023-08-17T05:12:43.180Z,6.03
2023-08-17T05:15:12.540Z,5.83
2023-08-17T05:17:42.303Z,6.30
2023-08-17T05:20:15.912Z,5.60
2023-08-17T05:22:44.542Z,5.40
2023-08-17T05:25:12.998Z,5.73
2023-08-17T05:27:42.896Z,5.33
2023-08-17T05:30:12.913Z,6.23
2023-08-17T05:32:43.316Z,5.93
2023-08-17T05:35:12.206Z,5.70
2023-08-17T05:37:42.157Z,5.53
2023-08-17T05:40:11.928Z,5.93
2023-08-17T05:42:40.489Z,5.73
2023-08-17T05:45:10.164Z,5.67
2023-08-17T05:47:38.615Z,5.70
2023-08-17T05:50:08.229Z,5.23
2023-08-17T05:52:36.550Z,5.27
2023-08-17T05:55:07.175Z,5.33
2023-08-17T05:57:36.616Z,5.30
2023-08-17T06:00:05.841Z,5.23
2023-08-17T06:02:41.123Z,5.00
2023-08-17T06:05:10.333Z,5.50
2023-08-17T06:07:38.969Z,5.30
2023-08-17T06:10:10.210Z,5.43
2023-08-17T06:12:38.728Z,5.07
2023-08-17T06:15:08.429Z,4.67
2023-08-17T06:17:37.019Z,5.00
2023-08-17T06:20:06.375Z,4.97
2023-08-17T06:22:34.771Z,5.47
2023-08-17T06:25:04.650Z,5.23
2023-08-17T06:27:34.834Z,6.10
2023-08-17T06:30:04.129Z,5.00
2023-08-17T06:32:34.072Z,5.10
2023-08-17T06:35:02.586Z,5.03
2023-08-17T06:37:31.090Z,4.80
2023-08-17T06:39:59.579Z,5.20
2023-08-17T06:42:28.279Z,4.70
2023-08-17T06:44:58.391Z,4.47
2023-08-17T06:47:27.435Z,5.03
2023-08-17T06:49:58.773Z,4.60
2023-08-17T06:52:27.286Z,4.93
2023-08-17T06:54:55.808Z,5.17
2023-08-17T06:57:25.305Z,4.90
2023-08-17T06:59:54.240Z,5.20
2023-08-17T07:02:24.389Z,5.67
2023-08-17T07:04:53.384Z,5.23
2023-08-17T07:07:21.972Z,5.60
2023-08-17T07:09:50.887Z,6.27
2023-08-17T07:12:20.649Z,6.20
2023-08-17T07:14:49.113Z,6.60
2023-08-17T07:17:17.825Z,7.20
2023-08-17T07:20:13.777Z,8.97
2023-08-17T07:22:37.190Z,9.50
2023-08-17T07:25:08.296Z,7.17
2023-08-17T07:27:37.020Z,8.33
2023-08-17T07:30:06.005Z,7.17
2023-08-17T07:32:35.147Z,6.83
2023-08-17T07:35:05.885Z,7.13
2023-08-17T07:37:35.074Z,7.63
2023-08-17T07:40:05.320Z,7.50
2023-08-17T07:42:34.133Z,8.70
2023-08-17T07:45:05.757Z,7.87
2023-08-17T07:47:34.553Z,8.00
2023-08-17T07:50:05.342Z,8.47
2023-08-17T07:52:33.986Z,8.47
2023-08-17T07:55:02.686Z,8.73
2023-08-17T07:57:31.957Z,8.93
2023-08-17T08:00:02.800Z,9.77
2023-08-17T08:02:36.821Z,9.40
2023-08-17T08:05:08.475Z,9.10
2023-08-17T08:07:37.202Z,11.10
2023-08-17T08:10:06.426Z,11.67
2023-08-17T08:12:35.018Z,11.57
2023-08-17T08:15:03.844Z,12.67
2023-08-17T08:17:32.906Z,11.00
2023-08-17T08:20:01.526Z,11.93
2023-08-17T08:22:31.497Z,12.17
2023-08-17T08:25:00.734Z,12.87
2023-08-17T08:27:29.254Z,12.30
2023-08-17T08:29:58.485Z,12.17
2023-08-17T08:32:28.531Z,11.03
2023-08-17T08:34:57.770Z,14.47
2023-08-17T08:37:26.744Z,12.17
2023-08-17T08:39:57.974Z,12.87
2023-08-17T08:42:27.552Z,11.23
2023-08-17T08:44:56.268Z,11.33
2023-08-17T08:47:26.678Z,10.67
2023-08-17T08:50:02.695Z,9.97
2023-08-17T08:52:37.160Z,9.30
2023-08-17T08:55:14.012Z,9.97
2023-08-17T08:57:43.853Z,9.63
2023-08-17T09:00:14.986Z,8.93
2023-08-17T09:02:45.046Z,10.70
2023-08-17T09:05:14.459Z,10.87
2023-08-17T09:07:44.988Z,10.53
2023-08-17T09:10:17.583Z,10.13
2023-08-17T09:12:49.068Z,10.70
2023-08-17T09:15:18.415Z,10.87
2023-08-17T09:17:49.060Z,10.13
2023-08-17T09:20:39.211Z,12.43
2023-08-17T09:23:14.097Z,10.77
2023-08-17T09:25:46.201Z,11.23
2023-08-17T09:28:16.049Z,13.10
2023-08-17T09:30:57.346Z,12.63
2023-08-17T09:33:27.930Z,11.90
2023-08-17T09:35:59.562Z,12.37
2023-08-17T09:38:29.556Z,12.20
2023-08-17T09:41:00.462Z,10.83
2023-08-17T09:43:32.223Z,10.13
2023-08-17T09:46:02.983Z,11.17
2023-08-17T09:48:33.318Z,9.20
2023-08-17T09:51:03.536Z,9.20
2023-08-17T09:53:37.309Z,10.20
2023-08-17T09:56:17.761Z,10.60
2023-08-17T09:58:46.716Z,10.53
2023-08-17T10:01:15.817Z,11.10
2023-08-17T10:03:46.976Z,11.30
2023-08-17T10:06:19.701Z,12.27
2023-08-17T10:08:50.748Z,11.70
2023-08-17T10:11:24.375Z,11.47
2023-08-17T10:14:00.729Z,10.60
2023-08-17T10:16:35.752Z,14.20
2023-08-17T10:19:12.115Z,15.07
2023-08-17T10:21:46.049Z,14.17
2023-08-17T10:24:14.926Z,14.40
2023-08-17T10:26:45.523Z,13.07
2023-08-17T10:29:17.383Z,14.70
2023-08-17T10:31:47.782Z,13.80
2023-08-17T10:34:17.416Z,14.77
2023-08-17T10:36:47.933Z,13.03
2023-08-17T10:39:29.337Z,12.97
2023-08-17T10:42:01.306Z,13.10
2023-08-17T10:44:48.443Z,13.20
2023-08-17T10:47:27.806Z,12.57
2023-08-17T10:49:59.035Z,15.77
2023-08-17T10:52:29.319Z,14.47
2023-08-17T10:54:58.452Z,15.20
2023-08-17T10:57:30.806Z,14.97
2023-08-17T11:02:55.635Z,14.87
2023-08-17T11:05:42.750Z,15.43
2023-08-17T11:08:15.072Z,14.87
2023-08-17T11:10:48.371Z,14.70
2023-08-17T11:13:18.377Z,15.13
2023-08-17T11:15:49.475Z,13.53
2023-08-17T11:18:18.032Z,14.83
2023-08-17T11:20:48.137Z,15.77
2023-08-17T11:23:16.727Z,16.90
2023-08-17T11:25:45.539Z,15.13
2023-08-17T11:28:15.360Z,15.80
2023-08-17T11:30:47.828Z,13.13
2023-08-17T11:33:16.638Z,11.03
2023-08-17T11:35:45.482Z,12.20
2023-08-17T11:38:14.096Z,13.33
2023-08-17T11:40:42.728Z,13.90
2023-08-17T11:43:12.572Z,17.37
2023-08-17T11:45:42.902Z,16.23
2023-08-17T11:48:13.048Z,19.67
2023-08-17T11:50:42.098Z,18.10
2023-08-17T11:53:10.651Z,18.10
2023-08-17T11:55:39.345Z,16.77
2023-08-17T11:58:10.632Z,18.47
2023-08-17T12:00:43.622Z,17.30
2023-08-17T12:03:15.798Z,18.20
2023-08-17T12:05:45.845Z,17.80
2023-08-17T12:08:16.744Z,18.80
2023-08-17T12:10:47.086Z,18.07
2023-08-17T12:13:16.006Z,18.60
2023-08-17T12:15:44.824Z,18.20
2023-08-17T12:18:14.932Z,18.87
2023-08-17T12:20:44.549Z,19.87
2023-08-17T12:23:15.105Z,22.23
2023-08-17T12:25:43.884Z,20.60
2023-08-17T12:28:14.998Z,24.97
2023-08-17T12:30:43.681Z,27.47
2023-08-17T12:33:12.117Z,27.07
2023-08-17T12:35:42.285Z,26.83
2023-08-17T12:38:10.721Z,27.37
2023-08-17T12:40:39.239Z,28.80
2023-08-17T12:43:07.795Z,26.53
2023-08-17T12:45:36.485Z,26.60
2023-08-17T12:48:05.648Z,26.20
2023-08-17T12:50:34.619Z,27.27
2023-08-17T12:53:04.510Z,26.40
2023-08-17T12:55:35.769Z,25.30
2023-08-17T12:58:04.586Z,25.47
2023-08-17T13:00:33.151Z,24.83
2023-08-17T13:03:01.802Z,27.43
2023-08-17T13:05:30.448Z,26.63
2023-08-17T13:07:59.059Z,25.97
2023-08-17T13:10:29.021Z,25.77
2023-08-17T13:13:00.454Z,29.27
2023-08-17T13:15:29.358Z,25.53
2023-08-17T13:17:58.001Z,25.27
2023-08-17T13:20:26.510Z,25.87
2023-08-17T13:22:55.055Z,26.10
2023-08-17T13:25:23.710Z,26.93
2023-08-17T13:27:53.664Z,26.47
2023-08-17T13:30:22.421Z,26.73
2023-08-17T13:32:51.097Z,18.13
2023-08-17T13:35:19.654Z,18.67
2023-08-17T13:37:53.159Z,19.17
2023-08-17T13:40:21.851Z,21.77
2023-08-17T13:42:50.263Z,23.60
2023-08-17T13:45:20.195Z,20.73
2023-08-17T13:47:48.932Z,23.67
2023-08-17T13:50:19.854Z,25.30
2023-08-17T13:52:48.523Z,31.03
2023-08-17T13:55:17.099Z,33.30
2023-08-17T13:57:46.302Z,34.57
2023-08-17T14:00:16.287Z,33.87
2023-08-17T14:02:46.259Z,33.03
2023-08-17T14:05:14.779Z,33.63
2023-08-17T14:07:43.758Z,31.60
2023-08-17T14:10:18.839Z,21.47
2023-08-17T14:12:57.611Z,15.13
2023-08-17T14:15:26.523Z,14.13
2023-08-17T14:17:56.496Z,14.67
2023-08-17T14:20:25.580Z,14.40
2023-08-17T14:22:54.127Z,14.07
2023-08-17T14:25:22.634Z,14.57
2023-08-17T14:27:51.192Z,13.93
2023-08-17T14:30:19.659Z,14.97
2023-08-17T14:32:48.473Z,14.70
2023-08-17T14:35:18.585Z,13.70
2023-08-17T14:37:47.202Z,15.87
2023-08-17T14:40:15.946Z,13.60
2023-08-17T14:42:44.576Z,16.43
2023-08-17T14:45:14.020Z,14.80
2023-08-17T14:47:42.877Z,15.33
2023-08-17T14:50:12.041Z,16.07
2023-08-17T14:52:42.055Z,17.70
2023-08-17T14:55:11.989Z,19.53
2023-08-17T14:57:40.520Z,20.37
2023-08-17T15:00:16.511Z,18.90
2023-08-17T15:02:45.749Z,20.00
2023-08-17T15:05:14.441Z,19.57
2023-08-17T15:07:44.686Z,22.93
2023-08-17T15:10:13.403Z,22.83
2023-08-17T15:12:42.468Z,23.67
2023-08-17T15:15:11.786Z,25.73
2023-08-17T15:17:40.332Z,25.27
2023-08-17T15:20:09.627Z,23.27
2023-08-17T15:22:38.369Z,23.60
2023-08-17T15:25:09.175Z,24.27
2023-08-17T15:27:37.738Z,24.40
2023-08-17T15:30:07.617Z,23.93
2023-08-17T15:32:36.157Z,23.00
2023-08-17T15:35:04.694Z,22.77
2023-08-17T15:37:33.225Z,21.53
2023-08-17T15:40:01.998Z,22.53
2023-08-17T15:42:31.940Z,21.67
2023-08-17T15:45:00.534Z,21.70
2023-08-17T15:47:29.681Z,22.73
2023-08-17T15:49:58.681Z,23.77
2023-08-17T15:52:27.192Z,22.97
2023-08-17T15:54:55.954Z,24.10
2023-08-17T15:57:25.857Z,23.50
2023-08-17T15:59:56.368Z,22.67
2023-08-17T16:02:24.858Z,23.70
2023-08-17T16:04:53.583Z,23.60
2023-08-17T16:07:22.335Z,22.90
2023-08-17T16:09:50.774Z,22.37
2023-08-17T16:12:19.392Z,23.27
2023-08-17T16:14:49.638Z,22.93
2023-08-17T16:17:20.167Z,23.83
2023-08-17T16:19:48.706Z,21.10
2023-08-17T16:22:17.644Z,21.90
2023-08-17T16:24:46.190Z,23.27
2023-08-17T16:27:14.894Z,20.53
2023-08-17T16:29:43.422Z,19.93
2023-08-17T16:32:12.037Z,20.00
2023-08-17T16:34:41.946Z,19.47
2023-08-17T16:37:10.778Z,18.47
2023-08-17T16:39:39.332Z,17.50
2023-08-17T16:42:08.478Z,17.70
2023-08-17T16:44:38.947Z,18.13
2023-08-17T16:47:07.737Z,18.60
2023-08-17T16:49:37.608Z,18.47
2023-08-17T16:52:08.416Z,19.17
2023-08-17T16:54:37.020Z,19.10
2023-08-17T16:57:05.456Z,17.70
2023-08-17T16:59:34.159Z,17.27
2023-08-17T17:02:03.838Z,17.37
2023-08-17T17:04:32.677Z,16.57
2023-08-17T17:07:01.121Z,17.07
2023-08-17T17:09:31.147Z,17.03
2023-08-17T17:12:00.228Z,18.13
2023-08-17T17:14:28.949Z,18.73
2023-08-17T17:16:57.652Z,18.00
2023-08-17T17:19:26.489Z,19.70
2023-08-17T17:21:55.046Z,19.37
2023-08-17T17:24:23.546Z,19.90
2023-08-17T17:26:56.483Z,18.23
2023-08-17T17:29:25.048Z,19.27
2023-08-17T17:31:53.650Z,20.23
2023-08-17T17:34:22.357Z,19.53
2023-08-17T17:36:50.893Z,18.93
2023-08-17T17:39:19.669Z,19.43
2023-08-17T17:41:49.029Z,20.23
2023-08-17T17:44:18.887Z,18.77
2023-08-17T17:46:51.226Z,19.53
2023-08-17T17:49:20.578Z,18.70
2023-08-17T17:51:49.262Z,19.37
2023-08-17T17:54:17.761Z,19.07
2023-08-17T17:56:46.399Z,20.03
2023-08-17T17:59:15.196Z,18.97
2023-08-17T18:01:46.496Z,19.87
2023-08-17T18:04:15.532Z,20.40
2023-08-17T18:06:44.103Z,19.10
2023-08-17T18:09:13.082Z,18.90
2023-08-17T18:11:41.834Z,18.80
2023-08-17T18:14:10.474Z,19.73
2023-08-17T18:16:39.174Z,20.47
2023-08-17T18:19:09.169Z,18.70
2023-08-17T18:21:37.978Z,18.27
2023-08-17T18:24:07.362Z,17.90
2023-08-17T18:26:35.866Z,17.60
2023-08-17T18:29:04.520Z,18.60
2023-08-17T18:31:33.369Z,18.17
2023-08-17T18:34:02.007Z,18.43
2023-08-17T18:36:32.458Z,18.80
2023-08-17T18:39:01.251Z,18.27
2023-08-17T18:41:30.021Z,19.27
2023-08-17T18:43:58.553Z,18.30
2023-08-17T18:46:27.184Z,18.13
2023-08-17T18:48:57.415Z,18.43
2023-08-17T18:51:26.323Z,18.57
2023-08-17T18:53:56.213Z,18.73
2023-08-17T18:56:24.925Z,18.10
2023-08-17T18:58:53.443Z,18.60
2023-08-17T19:01:22.129Z,17.30
2023-08-17T19:03:50.628Z,17.63
2023-08-17T19:06:19.248Z,17.07
2023-08-17T19:08:47.938Z,17.80
2023-08-17T19:11:17.860Z,18.63
2023-08-17T19:13:46.792Z,20.03
2023-08-17T19:16:16.227Z,18.50
2023-08-17T19:18:44.727Z,18.83
2023-08-17T19:21:13.278Z,18.87
2023-08-17T19:23:42.129Z,19.63
2023-08-17T19:26:11.447Z,17.73
2023-08-17T19:28:41.451Z,18.50
2023-08-17T19:31:12.904Z,19.13
2023-08-17T19:33:41.445Z,17.60
2023-08-17T19:36:10.101Z,18.37
2023-08-17T19:38:38.620Z,17.97
2023-08-17T19:41:07.147Z,18.40
2023-08-17T19:43:35.729Z,19.23
2023-08-17T19:46:05.929Z,17.83
2023-08-17T19:48:34.830Z,19.43
2023-08-17T19:51:04.955Z,18.57
2023-08-17T19:53:33.497Z,18.27
2023-08-17T19:56:02.193Z,18.07
2023-08-17T19:58:30.893Z,18.63
2023-08-17T20:01:08.789Z,19.43
2023-08-17T20:03:37.701Z,19.97
2023-08-17T20:06:07.269Z,18.33
2023-08-17T20:08:36.074Z,19.67
2023-08-17T20:11:12.621Z,19.20
2023-08-17T20:13:41.232Z,19.10
2023-08-17T20:16:11.317Z,21.07
2023-08-17T20:18:39.982Z,19.83
2023-08-17T20:21:08.881Z,19.77
2023-08-17T20:23:37.655Z,20.40
2023-08-17T20:26:06.547Z,19.90
2023-08-17T20:28:35.508Z,20.17
2023-08-17T20:31:05.427Z,20.40
2023-08-17T20:33:35.684Z,21.20
2023-08-17T20:36:04.835Z,20.87
2023-08-17T20:38:33.400Z,19.47
2023-08-17T20:41:05.082Z,20.43
2023-08-17T20:43:33.540Z,18.30
2023-08-17T20:46:02.457Z,19.93
2023-08-17T20:48:31.201Z,20.33
2023-08-17T20:51:02.031Z,21.67
2023-08-17T20:53:30.769Z,19.57
2023-08-17T20:55:59.621Z,21.17
2023-08-17T20:58:28.257Z,20.43
2023-08-17T21:00:56.842Z,20.53
2023-08-17T21:03:26.126Z,20.33
2023-08-17T21:05:54.652Z,20.17
2023-08-17T21:08:24.917Z,22.03
2023-08-17T21:10:54.019Z,18.80
2023-08-17T21:13:22.593Z,20.30
2023-08-17T21:15:51.259Z,19.93
2023-08-17T21:18:20.347Z,21.40
2023-08-17T21:20:49.090Z,21.17
2023-08-17T21:23:17.510Z,22.70
2023-08-17T21:25:52.187Z,21.03
2023-08-17T21:28:20.830Z,21.87
2023-08-17T21:30:49.493Z,21.87
2023-08-17T21:33:17.937Z,21.37
2023-08-17T21:35:46.447Z,21.67
2023-08-17T21:38:15.081Z,21.93
2023-08-17T21:40:46.172Z,22.23
2023-08-17T21:43:15.978Z,22.37
2023-08-17T21:45:44.454Z,21.90
2023-08-17T21:48:13.008Z,22.73
2023-08-17T21:50:43.963Z,22.50
2023-08-17T21:53:12.321Z,22.63
2023-08-17T21:55:46.356Z,22.47
2023-08-17T21:58:16.672Z,21.27
2023-08-17T22:00:45.928Z,21.97
2023-08-17T22:03:15.793Z,22.63
2023-08-17T22:05:46.296Z,21.77
2023-08-17T22:08:14.959Z,21.87
2023-08-17T22:10:44.807Z,21.53
2023-08-17T22:13:13.211Z,21.83
2023-08-17T22:15:43.014Z,20.87
2023-08-17T22:18:12.317Z,20.80
2023-08-17T22:20:41.578Z,22.10
2023-08-17T22:23:10.036Z,22.33
2023-08-17T22:25:38.852Z,20.30
2023-08-17T22:28:07.852Z,20.17
2023-08-17T22:30:36.267Z,20.87
2023-08-17T22:33:06.962Z,20.87
2023-08-17T22:35:35.512Z,19.63
2023-08-17T22:38:04.130Z,19.53
2023-08-17T22:40:32.781Z,20.83
2023-08-17T22:43:01.299Z,20.43
2023-08-17T22:45:29.764Z,21.10
2023-08-17T22:47:58.539Z,20.37
2023-08-17T22:50:28.343Z,20.33
2023-08-17T22:52:56.940Z,20.37
2023-08-17T22:55:25.594Z,19.93
2023-08-17T22:57:57.096Z,19.67
2023-08-17T23:00:25.671Z,19.47
2023-08-17T23:02:54.434Z,18.43
2023-08-17T23:05:23.129Z,17.47
2023-08-17T23:07:53.001Z,18.03
2023-08-17T23:10:21.824Z,16.33
2023-08-17T23:12:50.587Z,16.80
2023-08-17T23:15:19.102Z,18.37
2023-08-17T23:17:47.759Z,16.93
2023-08-17T23:20:16.625Z,17.27
2023-08-17T23:22:45.083Z,18.03
2023-08-17T23:25:14.858Z,17.90
2023-08-17T23:27:43.388Z,16.93
2023-08-17T23:30:12.514Z,16.90
2023-08-17T23:32:40.968Z,17.40
2023-08-17T23:35:12.615Z,17.13
2023-08-17T23:37:41.103Z,16.77
2023-08-17T23:40:11.026Z,17.63
2023-08-17T23:42:40.780Z,17.43
2023-08-17T23:45:09.750Z,18.23
2023-08-17T23:47:38.324Z,17.60
2023-08-17T23:50:07.755Z,17.90
2023-08-17T23:52:36.189Z,17.53
2023-08-17T23:55:05.324Z,18.73
2023-08-17T23:57:34.143Z,17.63
